sensor_id;sensor_type;location;lat;lon;timestamp;P1;durP1;ratioP1;P2;durP2;ratioP2
77226;SDS011;66234;47.642;19.144;2023-05-27T00:01:18;9.23;;;6.20;;
77226;SDS011;66234;47.642;19.144;2023-05-27T00:04:20;9.27;;;5.55;;
77226;SDS011;66234;47.642;19.144;2023-05-27T00:07:23;9.93;;;5.85;;
77226;SDS011;66234;47.642;19.144;2023-05-27T00:10:26;7.70;;;5.53;;
77226;SDS011;66234;47.642;19.144;2023-05-27T00:13:29;11.43;;;5.63;;
77226;SDS011;66234;47.642;19.144;2023-05-27T00:16:31;9.52;;;5.85;;
77226;SDS011;66234;47.642;19.144;2023-05-27T00:19:38;7.90;;;5.88;;
77226;SDS011;66234;47.642;19.144;2023-05-27T00:22:41;8.23;;;6.10;;
77226;SDS011;66234;47.642;19.144;2023-05-27T00:25:43;10.33;;;6.30;;
77226;SDS011;66234;47.642;19.144;2023-05-27T00:28:46;9.80;;;6.07;;
77226;SDS011;66234;47.642;19.144;2023-05-27T00:31:49;10.48;;;6.40;;
77226;SDS011;66234;47.642;19.144;2023-05-27T00:34:52;9.88;;;6.07;;
77226;SDS011;66234;47.642;19.144;2023-05-27T00:37:54;9.48;;;6.22;;
77226;SDS011;66234;47.642;19.144;2023-05-27T00:40:57;10.83;;;6.40;;
77226;SDS011;66234;47.642;19.144;2023-05-27T00:44:03;8.87;;;6.00;;
77226;SDS011;66234;47.642;19.144;2023-05-27T00:47:06;9.48;;;6.03;;
77226;SDS011;66234;47.642;19.144;2023-05-27T00:50:09;9.18;;;5.78;;
77226;SDS011;66234;47.642;19.144;2023-05-27T00:53:12;10.32;;;6.85;;
77226;SDS011;66234;47.642;19.144;2023-05-27T00:56:15;12.93;;;6.57;;
77226;SDS011;66234;47.642;19.144;2023-05-27T00:59:18;8.67;;;5.80;;
77226;SDS011;66234;47.642;19.144;2023-05-27T01:02:20;9.15;;;6.38;;
77226;SDS011;66234;47.642;19.144;2023-05-27T01:05:25;11.00;;;6.70;;
77226;SDS011;66234;47.642;19.144;2023-05-27T01:08:50;10.63;;;6.85;;
77226;SDS011;66234;47.642;19.144;2023-05-27T01:15:37;13.87;;;6.50;;
77226;SDS011;66234;47.642;19.144;2023-05-27T01:18:45;10.30;;;6.93;;
77226;SDS011;66234;47.642;19.144;2023-05-27T01:21:50;12.50;;;7.07;;
77226;SDS011;66234;47.642;19.144;2023-05-27T01:24:55;10.50;;;7.10;;
77226;SDS011;66234;47.642;19.144;2023-05-27T01:27:58;7.83;;;6.23;;
77226;SDS011;66234;47.642;19.144;2023-05-27T01:31:12;12.10;;;6.63;;
77226;SDS011;66234;47.642;19.144;2023-05-27T01:34:21;9.75;;;7.18;;
77226;SDS011;66234;47.642;19.144;2023-05-27T01:37:32;11.02;;;7.03;;
77226;SDS011;66234;47.642;19.144;2023-05-27T01:40:38;9.07;;;6.75;;
77226;SDS011;66234;47.642;19.144;2023-05-27T01:43:42;8.23;;;6.70;;
77226;SDS011;66234;47.642;19.144;2023-05-27T01:46:45;10.90;;;6.90;;
77226;SDS011;66234;47.642;19.144;2023-05-27T01:49:48;9.93;;;6.75;;
77226;SDS011;66234;47.642;19.144;2023-05-27T01:52:50;11.13;;;7.40;;
77226;SDS011;66234;47.642;19.144;2023-05-27T01:55:53;16.85;;;7.38;;
77226;SDS011;66234;47.642;19.144;2023-05-27T01:58:56;9.73;;;7.20;;
77226;SDS011;66234;47.642;19.144;2023-05-27T02:01:59;8.13;;;6.87;;
77226;SDS011;66234;47.642;19.144;2023-05-27T02:05:02;9.55;;;6.82;;
77226;SDS011;66234;47.642;19.144;2023-05-27T02:08:08;12.30;;;7.80;;
77226;SDS011;66234;47.642;19.144;2023-05-27T02:11:10;10.75;;;7.20;;
77226;SDS011;66234;47.642;19.144;2023-05-27T02:14:13;12.37;;;7.37;;
77226;SDS011;66234;47.642;19.144;2023-05-27T02:17:16;10.70;;;7.23;;
77226;SDS011;66234;47.642;19.144;2023-05-27T02:20:19;13.07;;;8.38;;
77226;SDS011;66234;47.642;19.144;2023-05-27T02:23:22;12.63;;;7.80;;
77226;SDS011;66234;47.642;19.144;2023-05-27T02:26:25;13.45;;;7.53;;
77226;SDS011;66234;47.642;19.144;2023-05-27T02:29:27;10.77;;;7.20;;
77226;SDS011;66234;47.642;19.144;2023-05-27T02:32:30;9.57;;;6.33;;
77226;SDS011;66234;47.642;19.144;2023-05-27T02:35:33;8.25;;;6.63;;
77226;SDS011;66234;47.642;19.144;2023-05-27T02:38:37;10.25;;;7.05;;
77226;SDS011;66234;47.642;19.144;2023-05-27T02:41:39;10.32;;;7.25;;
77226;SDS011;66234;47.642;19.144;2023-05-27T02:44:42;9.80;;;7.17;;
77226;SDS011;66234;47.642;19.144;2023-05-27T02:47:45;10.40;;;7.33;;
77226;SDS011;66234;47.642;19.144;2023-05-27T02:50:47;13.18;;;7.85;;
77226;SDS011;66234;47.642;19.144;2023-05-27T02:53:50;11.75;;;7.13;;
77226;SDS011;66234;47.642;19.144;2023-05-27T02:56:53;10.25;;;7.00;;
77226;SDS011;66234;47.642;19.144;2023-05-27T02:59:55;10.17;;;7.53;;
77226;SDS011;66234;47.642;19.144;2023-05-27T03:02:58;11.83;;;7.57;;
77226;SDS011;66234;47.642;19.144;2023-05-27T03:06:00;11.95;;;7.53;;
77226;SDS011;66234;47.642;19.144;2023-05-27T03:09:03;11.13;;;7.68;;
77226;SDS011;66234;47.642;19.144;2023-05-27T03:12:06;11.65;;;6.93;;
77226;SDS011;66234;47.642;19.144;2023-05-27T03:15:09;11.23;;;7.47;;
77226;SDS011;66234;47.642;19.144;2023-05-27T03:18:12;11.83;;;7.77;;
77226;SDS011;66234;47.642;19.144;2023-05-27T03:21:14;10.85;;;7.20;;
77226;SDS011;66234;47.642;19.144;2023-05-27T03:24:19;14.38;;;7.93;;
77226;SDS011;66234;47.642;19.144;2023-05-27T03:27:21;9.65;;;7.18;;
77226;SDS011;66234;47.642;19.144;2023-05-27T03:30:24;11.77;;;7.47;;
77226;SDS011;66234;47.642;19.144;2023-05-27T03:33:28;12.63;;;7.57;;
77226;SDS011;66234;47.642;19.144;2023-05-27T03:36:31;10.25;;;7.43;;
77226;SDS011;66234;47.642;19.144;2023-05-27T03:39:35;10.77;;;7.18;;
77226;SDS011;66234;47.642;19.144;2023-05-27T03:42:38;12.15;;;7.13;;
77226;SDS011;66234;47.642;19.144;2023-05-27T03:45:41;11.57;;;7.20;;
77226;SDS011;66234;47.642;19.144;2023-05-27T03:48:44;13.10;;;7.40;;
77226;SDS011;66234;47.642;19.144;2023-05-27T03:51:47;12.10;;;7.80;;
77226;SDS011;66234;47.642;19.144;2023-05-27T03:54:49;11.23;;;7.15;;
77226;SDS011;66234;47.642;19.144;2023-05-27T03:57:52;12.38;;;7.32;;
77226;SDS011;66234;47.642;19.144;2023-05-27T04:00:55;8.93;;;6.03;;
77226;SDS011;66234;47.642;19.144;2023-05-27T04:03:57;14.37;;;7.50;;
77226;SDS011;66234;47.642;19.144;2023-05-27T04:07:00;10.10;;;6.88;;
77226;SDS011;66234;47.642;19.144;2023-05-27T04:10:03;12.02;;;7.38;;
77226;SDS011;66234;47.642;19.144;2023-05-27T04:13:06;9.20;;;6.95;;
77226;SDS011;66234;47.642;19.144;2023-05-27T04:16:09;8.97;;;6.70;;
77226;SDS011;66234;47.642;19.144;2023-05-27T04:19:12;9.03;;;6.10;;
77226;SDS011;66234;47.642;19.144;2023-05-27T04:22:16;10.55;;;6.63;;
77226;SDS011;66234;47.642;19.144;2023-05-27T04:25:19;12.52;;;6.82;;
77226;SDS011;66234;47.642;19.144;2023-05-27T04:28:40;9.18;;;5.97;;
77226;SDS011;66234;47.642;19.144;2023-05-27T04:31:43;9.17;;;6.17;;
77226;SDS011;66234;47.642;19.144;2023-05-27T04:34:51;9.63;;;6.47;;
77226;SDS011;66234;47.642;19.144;2023-05-27T04:37:53;10.85;;;6.65;;
77226;SDS011;66234;47.642;19.144;2023-05-27T04:40:56;8.98;;;6.47;;
77226;SDS011;66234;47.642;19.144;2023-05-27T04:44:18;10.40;;;6.85;;
77226;SDS011;66234;47.642;19.144;2023-05-27T04:47:23;12.30;;;6.37;;
77226;SDS011;66234;47.642;19.144;2023-05-27T04:50:26;10.73;;;6.70;;
77226;SDS011;66234;47.642;19.144;2023-05-27T04:53:28;8.70;;;5.43;;
77226;SDS011;66234;47.642;19.144;2023-05-27T04:56:32;7.65;;;5.80;;
77226;SDS011;66234;47.642;19.144;2023-05-27T04:59:34;8.20;;;6.00;;
77226;SDS011;66234;47.642;19.144;2023-05-27T05:03:04;8.47;;;5.60;;
77226;SDS011;66234;47.642;19.144;2023-05-27T05:06:10;9.67;;;5.97;;
77226;SDS011;66234;47.642;19.144;2023-05-27T05:09:14;7.93;;;5.50;;
77226;SDS011;66234;47.642;19.144;2023-05-27T05:12:17;9.18;;;4.85;;
77226;SDS011;66234;47.642;19.144;2023-05-27T05:15:22;9.05;;;5.13;;
77226;SDS011;66234;47.642;19.144;2023-05-27T05:18:26;8.03;;;5.33;;
77226;SDS011;66234;47.642;19.144;2023-05-27T05:21:29;9.20;;;5.77;;
77226;SDS011;66234;47.642;19.144;2023-05-27T05:24:33;9.07;;;5.38;;
77226;SDS011;66234;47.642;19.144;2023-05-27T05:27:36;8.27;;;4.65;;
77226;SDS011;66234;47.642;19.144;2023-05-27T05:30:39;9.02;;;4.53;;
77226;SDS011;66234;47.642;19.144;2023-05-27T05:33:43;9.40;;;4.67;;
77226;SDS011;66234;47.642;19.144;2023-05-27T05:36:46;7.70;;;5.10;;
77226;SDS011;66234;47.642;19.144;2023-05-27T05:39:49;7.07;;;4.57;;
77226;SDS011;66234;47.642;19.144;2023-05-27T05:42:51;7.97;;;4.28;;
77226;SDS011;66234;47.642;19.144;2023-05-27T05:45:54;7.75;;;5.13;;
77226;SDS011;66234;47.642;19.144;2023-05-27T05:48:57;8.47;;;4.93;;
77226;SDS011;66234;47.642;19.144;2023-05-27T05:52:09;5.47;;;4.27;;
77226;SDS011;66234;47.642;19.144;2023-05-27T05:55:15;7.60;;;4.88;;
77226;SDS011;66234;47.642;19.144;2023-05-27T05:58:18;8.95;;;4.70;;
77226;SDS011;66234;47.642;19.144;2023-05-27T06:01:22;5.50;;;4.10;;
77226;SDS011;66234;47.642;19.144;2023-05-27T06:04:25;12.43;;;5.00;;
77226;SDS011;66234;47.642;19.144;2023-05-27T06:07:28;7.37;;;4.43;;
77226;SDS011;66234;47.642;19.144;2023-05-27T06:10:38;7.75;;;4.43;;
77226;SDS011;66234;47.642;19.144;2023-05-27T06:13:40;6.97;;;4.25;;
77226;SDS011;66234;47.642;19.144;2023-05-27T06:16:46;6.70;;;4.07;;
77226;SDS011;66234;47.642;19.144;2023-05-27T06:19:49;6.50;;;4.40;;
77226;SDS011;66234;47.642;19.144;2023-05-27T06:22:51;10.97;;;4.23;;
77226;SDS011;66234;47.642;19.144;2023-05-27T06:26:00;5.60;;;4.07;;
77226;SDS011;66234;47.642;19.144;2023-05-27T06:29:06;7.10;;;4.45;;
77226;SDS011;66234;47.642;19.144;2023-05-27T06:32:08;7.72;;;4.32;;
77226;SDS011;66234;47.642;19.144;2023-05-27T06:35:11;6.40;;;3.43;;
77226;SDS011;66234;47.642;19.144;2023-05-27T06:38:14;7.40;;;3.70;;
77226;SDS011;66234;47.642;19.144;2023-05-27T06:41:22;8.13;;;3.58;;
77226;SDS011;66234;47.642;19.144;2023-05-27T06:44:44;7.60;;;3.45;;
77226;SDS011;66234;47.642;19.144;2023-05-27T06:47:56;5.50;;;3.22;;
77226;SDS011;66234;47.642;19.144;2023-05-27T06:50:59;6.90;;;3.53;;
77226;SDS011;66234;47.642;19.144;2023-05-27T06:54:02;10.10;;;3.73;;
77226;SDS011;66234;47.642;19.144;2023-05-27T06:57:10;4.82;;;3.10;;
77226;SDS011;66234;47.642;19.144;2023-05-27T07:00:32;5.63;;;3.00;;
77226;SDS011;66234;47.642;19.144;2023-05-27T07:04:07;7.85;;;3.58;;
77226;SDS011;66234;47.642;19.144;2023-05-27T07:07:30;9.97;;;3.23;;
77226;SDS011;66234;47.642;19.144;2023-05-27T07:10:33;7.70;;;3.50;;
77226;SDS011;66234;47.642;19.144;2023-05-27T07:13:36;7.18;;;3.42;;
77226;SDS011;66234;47.642;19.144;2023-05-27T07:16:39;7.47;;;3.60;;
77226;SDS011;66234;47.642;19.144;2023-05-27T07:19:43;9.55;;;3.20;;
77226;SDS011;66234;47.642;19.144;2023-05-27T07:22:51;4.07;;;3.20;;
77226;SDS011;66234;47.642;19.144;2023-05-27T07:25:54;10.70;;;3.00;;
77226;SDS011;66234;47.642;19.144;2023-05-27T07:29:00;6.45;;;3.13;;
77226;SDS011;66234;47.642;19.144;2023-05-27T07:32:21;6.60;;;3.30;;
77226;SDS011;66234;47.642;19.144;2023-05-27T07:35:25;5.07;;;2.40;;
77226;SDS011;66234;47.642;19.144;2023-05-27T07:38:27;6.37;;;2.80;;
77226;SDS011;66234;47.642;19.144;2023-05-27T07:41:30;4.97;;;3.00;;
77226;SDS011;66234;47.642;19.144;2023-05-27T07:44:34;4.20;;;2.58;;
77226;SDS011;66234;47.642;19.144;2023-05-27T07:47:37;6.95;;;2.97;;
77226;SDS011;66234;47.642;19.144;2023-05-27T07:50:40;7.00;;;2.70;;
77226;SDS011;66234;47.642;19.144;2023-05-27T07:53:49;10.30;;;3.20;;
77226;SDS011;66234;47.642;19.144;2023-05-27T07:56:54;3.00;;;2.30;;
77226;SDS011;66234;47.642;19.144;2023-05-27T08:00:00;7.65;;;3.13;;
77226;SDS011;66234;47.642;19.144;2023-05-27T08:03:16;6.47;;;2.95;;
77226;SDS011;66234;47.642;19.144;2023-05-27T08:06:33;4.68;;;2.42;;
77226;SDS011;66234;47.642;19.144;2023-05-27T08:09:54;6.30;;;3.00;;
77226;SDS011;66234;47.642;19.144;2023-05-27T08:13:15;8.03;;;2.57;;
77226;SDS011;66234;47.642;19.144;2023-05-27T08:16:38;10.13;;;2.80;;
77226;SDS011;66234;47.642;19.144;2023-05-27T08:19:58;7.30;;;2.92;;
77226;SDS011;66234;47.642;19.144;2023-05-27T08:23:31;4.55;;;3.00;;
77226;SDS011;66234;47.642;19.144;2023-05-27T08:26:52;7.73;;;3.23;;
77226;SDS011;66234;47.642;19.144;2023-05-27T08:30:00;4.77;;;2.70;;
77226;SDS011;66234;47.642;19.144;2023-05-27T08:33:19;9.48;;;3.35;;
77226;SDS011;66234;47.642;19.144;2023-05-27T08:36:30;5.03;;;2.65;;
77226;SDS011;66234;47.642;19.144;2023-05-27T08:39:34;8.07;;;3.05;;
77226;SDS011;66234;47.642;19.144;2023-05-27T08:42:44;6.43;;;3.30;;
77226;SDS011;66234;47.642;19.144;2023-05-27T08:45:48;6.27;;;3.07;;
77226;SDS011;66234;47.642;19.144;2023-05-27T08:48:53;7.75;;;3.20;;
77226;SDS011;66234;47.642;19.144;2023-05-27T08:51:58;4.70;;;2.97;;
77226;SDS011;66234;47.642;19.144;2023-05-27T08:55:03;7.07;;;3.25;;
77226;SDS011;66234;47.642;19.144;2023-05-27T08:58:07;5.53;;;3.23;;
77226;SDS011;66234;47.642;19.144;2023-05-27T09:01:17;5.43;;;2.80;;
77226;SDS011;66234;47.642;19.144;2023-05-27T09:04:22;6.10;;;2.92;;
77226;SDS011;66234;47.642;19.144;2023-05-27T09:07:25;7.47;;;3.60;;
77226;SDS011;66234;47.642;19.144;2023-05-27T09:10:37;6.82;;;3.20;;
77226;SDS011;66234;47.642;19.144;2023-05-27T09:13:44;8.33;;;3.13;;
77226;SDS011;66234;47.642;19.144;2023-05-27T09:16:48;5.80;;;3.20;;
77226;SDS011;66234;47.642;19.144;2023-05-27T09:19:51;6.03;;;3.92;;
77226;SDS011;66234;47.642;19.144;2023-05-27T09:22:56;5.20;;;3.10;;
77226;SDS011;66234;47.642;19.144;2023-05-27T09:26:00;10.00;;;3.72;;
77226;SDS011;66234;47.642;19.144;2023-05-27T09:29:06;6.57;;;3.73;;
77226;SDS011;66234;47.642;19.144;2023-05-27T09:32:09;8.43;;;3.70;;
77226;SDS011;66234;47.642;19.144;2023-05-27T09:35:12;8.13;;;3.60;;
77226;SDS011;66234;47.642;19.144;2023-05-27T09:38:17;7.18;;;3.97;;
77226;SDS011;66234;47.642;19.144;2023-05-27T09:41:23;5.97;;;3.60;;
77226;SDS011;66234;47.642;19.144;2023-05-27T09:44:29;6.67;;;3.87;;
77226;SDS011;66234;47.642;19.144;2023-05-27T09:47:32;6.23;;;3.90;;
77226;SDS011;66234;47.642;19.144;2023-05-27T09:50:35;7.32;;;4.10;;
77226;SDS011;66234;47.642;19.144;2023-05-27T09:53:40;8.35;;;4.05;;
77226;SDS011;66234;47.642;19.144;2023-05-27T09:56:43;3.80;;;3.40;;
77226;SDS011;66234;47.642;19.144;2023-05-27T09:59:50;6.87;;;4.33;;
77226;SDS011;66234;47.642;19.144;2023-05-27T10:02:53;6.27;;;4.10;;
77226;SDS011;66234;47.642;19.144;2023-05-27T10:06:00;6.63;;;4.65;;
77226;SDS011;66234;47.642;19.144;2023-05-27T10:09:03;5.85;;;3.92;;
77226;SDS011;66234;47.642;19.144;2023-05-27T10:12:06;5.95;;;3.78;;
77226;SDS011;66234;47.642;19.144;2023-05-27T10:15:20;4.43;;;3.33;;
77226;SDS011;66234;47.642;19.144;2023-05-27T10:18:27;7.73;;;4.30;;
77226;SDS011;66234;47.642;19.144;2023-05-27T10:21:33;6.28;;;4.28;;
77226;SDS011;66234;47.642;19.144;2023-05-27T10:24:45;6.05;;;3.90;;
77226;SDS011;66234;47.642;19.144;2023-05-27T10:27:50;6.03;;;4.05;;
77226;SDS011;66234;47.642;19.144;2023-05-27T10:30:53;5.83;;;4.00;;
77226;SDS011;66234;47.642;19.144;2023-05-27T10:34:06;5.13;;;3.57;;
77226;SDS011;66234;47.642;19.144;2023-05-27T10:37:09;9.43;;;4.15;;
77226;SDS011;66234;47.642;19.144;2023-05-27T10:40:23;8.25;;;4.45;;
77226;SDS011;66234;47.642;19.144;2023-05-27T10:43:27;5.10;;;3.55;;
77226;SDS011;66234;47.642;19.144;2023-05-27T10:46:39;5.40;;;3.77;;
77226;SDS011;66234;47.642;19.144;2023-05-27T10:49:47;7.53;;;4.00;;
77226;SDS011;66234;47.642;19.144;2023-05-27T10:52:50;8.10;;;4.50;;
77226;SDS011;66234;47.642;19.144;2023-05-27T10:55:56;7.85;;;4.20;;
77226;SDS011;66234;47.642;19.144;2023-05-27T10:59:00;8.30;;;4.95;;
77226;SDS011;66234;47.642;19.144;2023-05-27T11:02:04;6.50;;;4.27;;
77226;SDS011;66234;47.642;19.144;2023-05-27T11:05:13;8.37;;;4.30;;
77226;SDS011;66234;47.642;19.144;2023-05-27T11:08:16;5.28;;;4.60;;
77226;SDS011;66234;47.642;19.144;2023-05-27T11:11:19;5.95;;;4.28;;
77226;SDS011;66234;47.642;19.144;2023-05-27T11:14:22;5.60;;;4.20;;
77226;SDS011;66234;47.642;19.144;2023-05-27T11:17:25;9.15;;;4.43;;
77226;SDS011;66234;47.642;19.144;2023-05-27T11:20:37;5.13;;;3.83;;
77226;SDS011;66234;47.642;19.144;2023-05-27T11:23:41;5.40;;;4.10;;
77226;SDS011;66234;47.642;19.144;2023-05-27T11:26:46;6.60;;;4.00;;
77226;SDS011;66234;47.642;19.144;2023-05-27T11:29:50;8.60;;;4.82;;
77226;SDS011;66234;47.642;19.144;2023-05-27T11:33:01;6.00;;;4.13;;
77226;SDS011;66234;47.642;19.144;2023-05-27T11:36:06;6.37;;;4.60;;
77226;SDS011;66234;47.642;19.144;2023-05-27T11:39:10;6.82;;;4.68;;
77226;SDS011;66234;47.642;19.144;2023-05-27T11:42:23;6.55;;;4.05;;
77226;SDS011;66234;47.642;19.144;2023-05-27T11:45:27;8.18;;;5.05;;
77226;SDS011;66234;47.642;19.144;2023-05-27T11:48:30;7.93;;;4.38;;
77226;SDS011;66234;47.642;19.144;2023-05-27T11:51:34;7.03;;;4.83;;
77226;SDS011;66234;47.642;19.144;2023-05-27T11:54:38;6.45;;;5.35;;
77226;SDS011;66234;47.642;19.144;2023-05-27T11:57:48;6.90;;;4.95;;
77226;SDS011;66234;47.642;19.144;2023-05-27T12:00:51;10.35;;;5.20;;
77226;SDS011;66234;47.642;19.144;2023-05-27T12:03:54;7.57;;;5.18;;
77226;SDS011;66234;47.642;19.144;2023-05-27T12:06:57;5.83;;;4.93;;
77226;SDS011;66234;47.642;19.144;2023-05-27T12:10:10;6.60;;;4.80;;
77226;SDS011;66234;47.642;19.144;2023-05-27T12:13:12;12.35;;;5.30;;
77226;SDS011;66234;47.642;19.144;2023-05-27T12:16:15;6.40;;;4.45;;
77226;SDS011;66234;47.642;19.144;2023-05-27T12:19:17;5.83;;;4.30;;
77226;SDS011;66234;47.642;19.144;2023-05-27T12:22:22;9.87;;;4.80;;
77226;SDS011;66234;47.642;19.144;2023-05-27T12:25:25;8.40;;;4.63;;
77226;SDS011;66234;47.642;19.144;2023-05-27T12:28:28;6.28;;;4.72;;
77226;SDS011;66234;47.642;19.144;2023-05-27T12:31:30;8.85;;;4.32;;
77226;SDS011;66234;47.642;19.144;2023-05-27T12:34:33;8.60;;;5.07;;
77226;SDS011;66234;47.642;19.144;2023-05-27T12:37:36;10.47;;;4.90;;
77226;SDS011;66234;47.642;19.144;2023-05-27T12:40:38;6.15;;;4.45;;
77226;SDS011;66234;47.642;19.144;2023-05-27T12:43:41;6.82;;;4.57;;
77226;SDS011;66234;47.642;19.144;2023-05-27T12:46:44;6.82;;;4.70;;
77226;SDS011;66234;47.642;19.144;2023-05-27T12:49:46;7.47;;;4.33;;
77226;SDS011;66234;47.642;19.144;2023-05-27T12:52:49;6.57;;;4.80;;
77226;SDS011;66234;47.642;19.144;2023-05-27T12:55:53;8.63;;;4.70;;
77226;SDS011;66234;47.642;19.144;2023-05-27T12:58:56;8.57;;;5.25;;
77226;SDS011;66234;47.642;19.144;2023-05-27T13:01:58;6.95;;;5.18;;
77226;SDS011;66234;47.642;19.144;2023-05-27T13:05:01;7.20;;;5.38;;
77226;SDS011;66234;47.642;19.144;2023-05-27T13:08:04;11.37;;;5.60;;
77226;SDS011;66234;47.642;19.144;2023-05-27T13:11:07;8.02;;;5.55;;
77226;SDS011;66234;47.642;19.144;2023-05-27T13:14:09;7.28;;;5.55;;
77226;SDS011;66234;47.642;19.144;2023-05-27T13:17:12;11.40;;;5.80;;
77226;SDS011;66234;47.642;19.144;2023-05-27T13:20:15;9.55;;;6.43;;
77226;SDS011;66234;47.642;19.144;2023-05-27T13:23:18;7.77;;;5.90;;
77226;SDS011;66234;47.642;19.144;2023-05-27T13:26:22;8.55;;;6.28;;
77226;SDS011;66234;47.642;19.144;2023-05-27T13:29:25;6.85;;;5.20;;
77226;SDS011;66234;47.642;19.144;2023-05-27T13:32:28;7.75;;;5.05;;
77226;SDS011;66234;47.642;19.144;2023-05-27T13:35:31;6.82;;;6.00;;
77226;SDS011;66234;47.642;19.144;2023-05-27T13:38:33;8.60;;;6.37;;
77226;SDS011;66234;47.642;19.144;2023-05-27T13:41:36;11.38;;;6.90;;
77226;SDS011;66234;47.642;19.144;2023-05-27T13:44:38;8.18;;;6.25;;
77226;SDS011;66234;47.642;19.144;2023-05-27T13:47:42;8.15;;;6.35;;
77226;SDS011;66234;47.642;19.144;2023-05-27T13:50:48;7.70;;;6.20;;
77226;SDS011;66234;47.642;19.144;2023-05-27T13:53:51;8.63;;;6.07;;
77226;SDS011;66234;47.642;19.144;2023-05-27T13:56:53;7.82;;;5.50;;
77226;SDS011;66234;47.642;19.144;2023-05-27T13:59:56;8.43;;;5.82;;
77226;SDS011;66234;47.642;19.144;2023-05-27T14:02:59;6.95;;;6.15;;
77226;SDS011;66234;47.642;19.144;2023-05-27T14:06:02;9.10;;;6.78;;
77226;SDS011;66234;47.642;19.144;2023-05-27T14:09:05;8.67;;;6.27;;
77226;SDS011;66234;47.642;19.144;2023-05-27T14:12:07;8.43;;;6.57;;
77226;SDS011;66234;47.642;19.144;2023-05-27T14:15:10;10.60;;;6.47;;
77226;SDS011;66234;47.642;19.144;2023-05-27T14:18:13;8.35;;;6.28;;
77226;SDS011;66234;47.642;19.144;2023-05-27T14:21:16;7.47;;;6.50;;
77226;SDS011;66234;47.642;19.144;2023-05-27T14:24:19;11.07;;;6.60;;
77226;SDS011;66234;47.642;19.144;2023-05-27T14:27:21;10.00;;;6.90;;
77226;SDS011;66234;47.642;19.144;2023-05-27T14:30:24;10.02;;;6.82;;
77226;SDS011;66234;47.642;19.144;2023-05-27T14:33:27;8.32;;;7.03;;
77226;SDS011;66234;47.642;19.144;2023-05-27T14:36:29;9.70;;;6.93;;
77226;SDS011;66234;47.642;19.144;2023-05-27T14:39:32;8.73;;;6.60;;
77226;SDS011;66234;47.642;19.144;2023-05-27T14:42:34;10.35;;;7.55;;
77226;SDS011;66234;47.642;19.144;2023-05-27T14:45:39;8.55;;;7.13;;
77226;SDS011;66234;47.642;19.144;2023-05-27T14:48:42;10.00;;;6.50;;
77226;SDS011;66234;47.642;19.144;2023-05-27T14:51:46;8.07;;;6.85;;
77226;SDS011;66234;47.642;19.144;2023-05-27T14:54:49;11.47;;;9.40;;
77226;SDS011;66234;47.642;19.144;2023-05-27T14:57:51;9.73;;;6.97;;
77226;SDS011;66234;47.642;19.144;2023-05-27T15:00:54;13.13;;;11.75;;
77226;SDS011;66234;47.642;19.144;2023-05-27T15:03:57;8.98;;;8.00;;
77226;SDS011;66234;47.642;19.144;2023-05-27T15:07:00;11.63;;;8.25;;
77226;SDS011;66234;47.642;19.144;2023-05-27T15:10:03;10.37;;;6.97;;
77226;SDS011;66234;47.642;19.144;2023-05-27T15:13:08;12.93;;;8.55;;
77226;SDS011;66234;47.642;19.144;2023-05-27T15:16:11;8.27;;;7.38;;
77226;SDS011;66234;47.642;19.144;2023-05-27T15:19:14;14.60;;;9.43;;
77226;SDS011;66234;47.642;19.144;2023-05-27T15:22:16;10.55;;;7.70;;
77226;SDS011;66234;47.642;19.144;2023-05-27T15:25:19;9.30;;;7.07;;
77226;SDS011;66234;47.642;19.144;2023-05-27T15:28:22;8.80;;;7.43;;
77226;SDS011;66234;47.642;19.144;2023-05-27T15:31:25;8.20;;;7.35;;
77226;SDS011;66234;47.642;19.144;2023-05-27T15:34:28;20.40;;;16.52;;
77226;SDS011;66234;47.642;19.144;2023-05-27T15:37:30;7.88;;;6.60;;
77226;SDS011;66234;47.642;19.144;2023-05-27T15:40:33;7.90;;;5.90;;
77226;SDS011;66234;47.642;19.144;2023-05-27T15:43:38;12.23;;;10.07;;
77226;SDS011;66234;47.642;19.144;2023-05-27T15:46:41;12.00;;;9.05;;
77226;SDS011;66234;47.642;19.144;2023-05-27T15:49:43;8.30;;;7.22;;
77226;SDS011;66234;47.642;19.144;2023-05-27T15:52:48;8.10;;;6.95;;
77226;SDS011;66234;47.642;19.144;2023-05-27T15:55:51;9.90;;;6.77;;
77226;SDS011;66234;47.642;19.144;2023-05-27T15:58:54;10.23;;;8.10;;
77226;SDS011;66234;47.642;19.144;2023-05-27T16:01:57;8.43;;;7.07;;
77226;SDS011;66234;47.642;19.144;2023-05-27T16:05:00;11.00;;;7.85;;
77226;SDS011;66234;47.642;19.144;2023-05-27T16:08:05;8.95;;;7.32;;
77226;SDS011;66234;47.642;19.144;2023-05-27T16:11:07;7.90;;;6.40;;
77226;SDS011;66234;47.642;19.144;2023-05-27T16:14:10;12.73;;;9.82;;
77226;SDS011;66234;47.642;19.144;2023-05-27T16:17:12;8.55;;;6.47;;
77226;SDS011;66234;47.642;19.144;2023-05-27T16:20:15;12.75;;;8.27;;
77226;SDS011;66234;47.642;19.144;2023-05-27T16:23:18;11.85;;;8.35;;
77226;SDS011;66234;47.642;19.144;2023-05-27T16:26:23;10.17;;;6.67;;
77226;SDS011;66234;47.642;19.144;2023-05-27T16:29:26;10.32;;;6.95;;
77226;SDS011;66234;47.642;19.144;2023-05-27T16:32:28;11.93;;;8.38;;
77226;SDS011;66234;47.642;19.144;2023-05-27T16:35:31;18.52;;;9.45;;
77226;SDS011;66234;47.642;19.144;2023-05-27T16:38:34;12.07;;;7.50;;
77226;SDS011;66234;47.642;19.144;2023-05-27T16:41:37;10.37;;;6.90;;
77226;SDS011;66234;47.642;19.144;2023-05-27T16:44:39;9.60;;;6.45;;
77226;SDS011;66234;47.642;19.144;2023-05-27T16:47:42;12.75;;;9.93;;
77226;SDS011;66234;47.642;19.144;2023-05-27T16:50:45;9.63;;;6.18;;
77226;SDS011;66234;47.642;19.144;2023-05-27T16:53:51;8.00;;;6.38;;
77226;SDS011;66234;47.642;19.144;2023-05-27T16:56:53;11.07;;;6.60;;
77226;SDS011;66234;47.642;19.144;2023-05-27T16:59:56;9.60;;;6.70;;
77226;SDS011;66234;47.642;19.144;2023-05-27T17:02:59;10.07;;;6.63;;
77226;SDS011;66234;47.642;19.144;2023-05-27T17:06:02;15.15;;;8.63;;
77226;SDS011;66234;47.642;19.144;2023-05-27T17:09:05;14.77;;;9.65;;
77226;SDS011;66234;47.642;19.144;2023-05-27T17:12:09;12.73;;;8.33;;
77226;SDS011;66234;47.642;19.144;2023-05-27T17:15:11;9.15;;;7.68;;
77226;SDS011;66234;47.642;19.144;2023-05-27T17:18:14;13.63;;;6.82;;
77226;SDS011;66234;47.642;19.144;2023-05-27T17:21:17;10.52;;;6.57;;
77226;SDS011;66234;47.642;19.144;2023-05-27T17:24:19;10.90;;;7.20;;
77226;SDS011;66234;47.642;19.144;2023-05-27T17:27:22;10.10;;;6.40;;
77226;SDS011;66234;47.642;19.144;2023-05-27T17:30:25;8.20;;;6.25;;
77226;SDS011;66234;47.642;19.144;2023-05-27T17:33:28;10.32;;;6.53;;
77226;SDS011;66234;47.642;19.144;2023-05-27T17:36:30;7.90;;;6.20;;
77226;SDS011;66234;47.642;19.144;2023-05-27T17:39:33;8.13;;;6.90;;
77226;SDS011;66234;47.642;19.144;2023-05-27T17:42:36;9.50;;;6.73;;
77226;SDS011;66234;47.642;19.144;2023-05-27T17:45:38;10.63;;;6.97;;
77226;SDS011;66234;47.642;19.144;2023-05-27T17:48:41;9.13;;;6.18;;
77226;SDS011;66234;47.642;19.144;2023-05-27T17:51:44;10.02;;;7.10;;
77226;SDS011;66234;47.642;19.144;2023-05-27T17:54:47;9.10;;;6.40;;
77226;SDS011;66234;47.642;19.144;2023-05-27T17:57:49;11.30;;;7.20;;
77226;SDS011;66234;47.642;19.144;2023-05-27T18:00:52;9.85;;;7.40;;
77226;SDS011;66234;47.642;19.144;2023-05-27T18:03:55;9.70;;;7.40;;
77226;SDS011;66234;47.642;19.144;2023-05-27T18:06:58;11.50;;;6.85;;
77226;SDS011;66234;47.642;19.144;2023-05-27T18:10:00;13.83;;;7.17;;
77226;SDS011;66234;47.642;19.144;2023-05-27T18:13:03;11.10;;;7.53;;
77226;SDS011;66234;47.642;19.144;2023-05-27T18:16:06;12.48;;;6.93;;